sensor_id;sensor_type;location;lat;lon;timestamp;temperature;humidity
1958;DHT22;979;51.076;13.748;2022-07-29T00:00:23;19.50;48.80
1958;DHT22;979;51.076;13.748;2022-07-29T00:02:52;19.50;48.80
1958;DHT22;979;51.076;13.748;2022-07-29T00:05:20;19.40;48.90
1958;DHT22;979;51.076;13.748;2022-07-29T00:07:48;19.40;48.90
1958;DHT22;979;51.076;13.748;2022-07-29T00:10:42;19.40;49.00
1958;DHT22;979;51.076;13.748;2022-07-29T00:13:14;19.40;49.00
1958;DHT22;979;51.076;13.748;2022-07-29T00:15:42;19.40;49.20
1958;DHT22;979;51.076;13.748;2022-07-29T00:18:10;19.40;49.20
1958;DHT22;979;51.076;13.748;2022-07-29T00:20:38;19.50;49.50
1958;DHT22;979;51.076;13.748;2022-07-29T00:23:07;19.40;49.40
1958;DHT22;979;51.076;13.748;2022-07-29T00:25:39;19.30;49.40
1958;DHT22;979;51.076;13.748;2022-07-29T00:28:08;19.30;49.40
1958;DHT22;979;51.076;13.748;2022-07-29T00:30:37;19.30;49.60
1958;DHT22;979;51.076;13.748;2022-07-29T00:33:09;19.10;49.50
1958;DHT22;979;51.076;13.748;2022-07-29T00:35:37;19.30;49.80
1958;DHT22;979;51.076;13.748;2022-07-29T00:38:14;19.20;49.80
1958;DHT22;979;51.076;13.748;2022-07-29T00:40:42;19.20;49.90
1958;DHT22;979;51.076;13.748;2022-07-29T00:43:12;19.20;50.00
1958;DHT22;979;51.076;13.748;2022-07-29T00:45:42;19.20;50.20
1958;DHT22;979;51.076;13.748;2022-07-29T00:48:13;19.20;50.40
1958;DHT22;979;51.076;13.748;2022-07-29T00:50:42;19.10;50.40
1958;DHT22;979;51.076;13.748;2022-07-29T00:53:11;19.20;50.60
1958;DHT22;979;51.076;13.748;2022-07-29T00:55:40;19.30;50.80
1958;DHT22;979;51.076;13.748;2022-07-29T00:58:08;19.10;50.80
1958;DHT22;979;51.076;13.748;2022-07-29T01:00:39;19.00;50.90
1958;DHT22;979;51.076;13.748;2022-07-29T01:03:12;19.00;51.00
1958;DHT22;979;51.076;13.748;2022-07-29T01:05:43;19.00;51.10
1958;DHT22;979;51.076;13.748;2022-07-29T01:08:18;19.00;51.30
1958;DHT22;979;51.076;13.748;2022-07-29T01:10:57;18.90;51.30
1958;DHT22;979;51.076;13.748;2022-07-29T01:13:29;18.90;51.40
1958;DHT22;979;51.076;13.748;2022-07-29T01:16:03;18.90;51.40
1958;DHT22;979;51.076;13.748;2022-07-29T01:18:34;18.80;51.60
1958;DHT22;979;51.076;13.748;2022-07-29T01:21:24;18.80;51.70
1958;DHT22;979;51.076;13.748;2022-07-29T01:24:10;19.10;52.10
1958;DHT22;979;51.076;13.748;2022-07-29T01:26:46;18.70;51.60
1958;DHT22;979;51.076;13.748;2022-07-29T01:29:27;18.70;51.60
1958;DHT22;979;51.076;13.748;2022-07-29T01:32:04;18.70;51.70
1958;DHT22;979;51.076;13.748;2022-07-29T01:34:48;18.70;51.60
1958;DHT22;979;51.076;13.748;2022-07-29T01:37:37;18.70;51.70
1958;DHT22;979;51.076;13.748;2022-07-29T01:40:11;18.70;51.70
1958;DHT22;979;51.076;13.748;2022-07-29T01:42:43;18.70;51.90
1958;DHT22;979;51.076;13.748;2022-07-29T01:45:17;18.70;52.00
1958;DHT22;979;51.076;13.748;2022-07-29T01:47:52;18.60;52.00
1958;DHT22;979;51.076;13.748;2022-07-29T01:50:28;18.60;52.20
1958;DHT22;979;51.076;13.748;2022-07-29T01:53:00;18.60;52.30
1958;DHT22;979;51.076;13.748;2022-07-29T01:55:32;18.60;52.40
1958;DHT22;979;51.076;13.748;2022-07-29T01:58:03;18.60;52.50
1958;DHT22;979;51.076;13.748;2022-07-29T02:00:34;18.60;52.70
1958;DHT22;979;51.076;13.748;2022-07-29T02:03:09;18.60;52.80
1958;DHT22;979;51.076;13.748;2022-07-29T02:05:40;18.60;52.90
1958;DHT22;979;51.076;13.748;2022-07-29T02:08:10;18.60;52.90
1958;DHT22;979;51.076;13.748;2022-07-29T02:10:40;18.60;53.00
1958;DHT22;979;51.076;13.748;2022-07-29T02:13:11;18.50;53.00
1958;DHT22;979;51.076;13.748;2022-07-29T02:15:53;18.50;53.10
1958;DHT22;979;51.076;13.748;2022-07-29T02:18:24;18.50;53.20
1958;DHT22;979;51.076;13.748;2022-07-29T02:20:55;18.50;53.20
1958;DHT22;979;51.076;13.748;2022-07-29T02:23:25;18.50;53.30
1958;DHT22;979;51.076;13.748;2022-07-29T02:25:56;18.50;53.50
1958;DHT22;979;51.076;13.748;2022-07-29T02:28:27;18.50;53.60
1958;DHT22;979;51.076;13.748;2022-07-29T02:31:00;18.50;53.70
1958;DHT22;979;51.076;13.748;2022-07-29T02:33:30;18.50;53.80
1958;DHT22;979;51.076;13.748;2022-07-29T02:36:00;18.40;53.80
1958;DHT22;979;51.076;13.748;2022-07-29T02:38:31;18.40;53.80
1958;DHT22;979;51.076;13.748;2022-07-29T02:41:22;18.50;54.00
1958;DHT22;979;51.076;13.748;2022-07-29T02:43:55;18.70;54.20
1958;DHT22;979;51.076;13.748;2022-07-29T02:46:31;18.40;54.00
1958;DHT22;979;51.076;13.748;2022-07-29T02:49:05;18.40;54.10
1958;DHT22;979;51.076;13.748;2022-07-29T02:51:43;18.40;54.10
1958;DHT22;979;51.076;13.748;2022-07-29T02:54:30;18.40;54.20
1958;DHT22;979;51.076;13.748;2022-07-29T02:57:31;18.40;54.30
1958;DHT22;979;51.076;13.748;2022-07-29T03:00:24;18.40;54.20
1958;DHT22;979;51.076;13.748;2022-07-29T03:03:00;18.40;54.30
1958;DHT22;979;51.076;13.748;2022-07-29T03:05:32;18.40;54.30
1958;DHT22;979;51.076;13.748;2022-07-29T03:08:03;18.40;54.40
1958;DHT22;979;51.076;13.748;2022-07-29T03:10:35;18.40;54.50
1958;DHT22;979;51.076;13.748;2022-07-29T03:13:05;18.40;54.50
1958;DHT22;979;51.076;13.748;2022-07-29T03:15:35;18.40;54.50
1958;DHT22;979;51.076;13.748;2022-07-29T03:18:05;18.40;54.60
1958;DHT22;979;51.076;13.748;2022-07-29T03:20:38;18.30;54.60
1958;DHT22;979;51.076;13.748;2022-07-29T03:23:07;18.40;54.80
1958;DHT22;979;51.076;13.748;2022-07-29T03:25:36;18.40;54.80
1958;DHT22;979;51.076;13.748;2022-07-29T03:28:32;18.40;54.90
1958;DHT22;979;51.076;13.748;2022-07-29T03:31:07;18.30;54.60
1958;DHT22;979;51.076;13.748;2022-07-29T03:33:36;18.30;54.70
1958;DHT22;979;51.076;13.748;2022-07-29T03:36:07;18.30;54.80
1958;DHT22;979;51.076;13.748;2022-07-29T03:38:47;18.30;54.80
1958;DHT22;979;51.076;13.748;2022-07-29T03:41:17;18.30;54.90
1958;DHT22;979;51.076;13.748;2022-07-29T03:44:13;18.30;54.90
1958;DHT22;979;51.076;13.748;2022-07-29T03:46:44;18.30;54.90
1958;DHT22;979;51.076;13.748;2022-07-29T03:49:22;18.30;55.00
1958;DHT22;979;51.076;13.748;2022-07-29T03:51:51;18.30;55.00
1958;DHT22;979;51.076;13.748;2022-07-29T03:54:19;18.30;55.10
1958;DHT22;979;51.076;13.748;2022-07-29T03:56:51;18.30;55.20
1958;DHT22;979;51.076;13.748;2022-07-29T03:59:36;18.30;55.90
1958;DHT22;979;51.076;13.748;2022-07-29T04:02:12;18.30;55.30
1958;DHT22;979;51.076;13.748;2022-07-29T04:04:50;18.30;55.30
1958;DHT22;979;51.076;13.748;2022-07-29T04:07:24;18.30;55.30
1958;DHT22;979;51.076;13.748;2022-07-29T04:09:57;18.30;55.40
1958;DHT22;979;51.076;13.748;2022-07-29T04:12:35;18.30;55.40
1958;DHT22;979;51.076;13.748;2022-07-29T04:15:04;18.30;55.50
1958;DHT22;979;51.076;13.748;2022-07-29T04:17:32;18.30;55.60
1958;DHT22;979;51.076;13.748;2022-07-29T04:20:03;18.40;56.00
1958;DHT22;979;51.076;13.748;2022-07-29T04:22:31;18.40;55.80
1958;DHT22;979;51.076;13.748;2022-07-29T04:25:00;18.50;55.90
1958;DHT22;979;51.076;13.748;2022-07-29T04:28:09;18.40;55.90
1958;DHT22;979;51.076;13.748;2022-07-29T04:30:39;18.50;56.00
1958;DHT22;979;51.076;13.748;2022-07-29T04:33:11;18.60;56.00
1958;DHT22;979;51.076;13.748;2022-07-29T04:35:44;18.70;56.00
1958;DHT22;979;51.076;13.748;2022-07-29T04:38:21;18.70;56.00
1958;DHT22;979;51.076;13.748;2022-07-29T04:40:49;18.80;56.00
1958;DHT22;979;51.076;13.748;2022-07-29T04:43:18;18.90;56.00
1958;DHT22;979;51.076;13.748;2022-07-29T04:45:49;18.90;56.00
1958;DHT22;979;51.076;13.748;2022-07-29T04:48:17;19.00;56.10
1958;DHT22;979;51.076;13.748;2022-07-29T04:50:55;19.00;56.10
1958;DHT22;979;51.076;13.748;2022-07-29T04:53:26;19.00;56.10
1958;DHT22;979;51.076;13.748;2022-07-29T04:55:55;19.00;56.10
1958;DHT22;979;51.076;13.748;2022-07-29T04:58:24;19.00;56.20
1958;DHT22;979;51.076;13.748;2022-07-29T05:01:20;19.10;56.20
1958;DHT22;979;51.076;13.748;2022-07-29T05:03:59;19.10;56.10
1958;DHT22;979;51.076;13.748;2022-07-29T05:06:39;19.20;56.20
1958;DHT22;979;51.076;13.748;2022-07-29T05:09:13;19.30;56.30
1958;DHT22;979;51.076;13.748;2022-07-29T05:12:08;19.30;56.20
1958;DHT22;979;51.076;13.748;2022-07-29T05:14:37;19.40;56.20
1958;DHT22;979;51.076;13.748;2022-07-29T05:17:05;19.40;56.20
1958;DHT22;979;51.076;13.748;2022-07-29T05:19:35;19.40;56.20
1958;DHT22;979;51.076;13.748;2022-07-29T05:22:07;19.50;56.30
1958;DHT22;979;51.076;13.748;2022-07-29T05:24:35;19.60;56.30
1958;DHT22;979;51.076;13.748;2022-07-29T05:27:04;19.60;56.30
1958;DHT22;979;51.076;13.748;2022-07-29T05:29:35;19.60;56.20
1958;DHT22;979;51.076;13.748;2022-07-29T05:32:11;19.70;56.20
1958;DHT22;979;51.076;13.748;2022-07-29T05:34:42;19.70;56.10
1958;DHT22;979;51.076;13.748;2022-07-29T05:37:26;19.70;56.10
1958;DHT22;979;51.076;13.748;2022-07-29T05:39:54;19.80;56.20
1958;DHT22;979;51.076;13.748;2022-07-29T05:42:26;19.90;56.20
1958;DHT22;979;51.076;13.748;2022-07-29T05:44:56;20.00;56.20
1958;DHT22;979;51.076;13.748;2022-07-29T05:47:26;20.10;56.10
1958;DHT22;979;51.076;13.748;2022-07-29T05:50:20;20.20;56.20
1958;DHT22;979;51.076;13.748;2022-07-29T05:52:53;20.30;56.00
1958;DHT22;979;51.076;13.748;2022-07-29T05:55:21;20.40;56.00
1958;DHT22;979;51.076;13.748;2022-07-29T05:57:51;20.50;56.00
1958;DHT22;979;51.076;13.748;2022-07-29T06:00:20;20.60;55.80
1958;DHT22;979;51.076;13.748;2022-07-29T06:02:48;20.70;55.70
1958;DHT22;979;51.076;13.748;2022-07-29T06:05:17;20.80;55.70
1958;DHT22;979;51.076;13.748;2022-07-29T06:08:12;20.80;55.60
1958;DHT22;979;51.076;13.748;2022-07-29T06:10:41;21.10;55.70
1958;DHT22;979;51.076;13.748;2022-07-29T06:13:12;21.00;55.20
1958;DHT22;979;51.076;13.748;2022-07-29T06:16:07;21.10;55.20
1958;DHT22;979;51.076;13.748;2022-07-29T06:18:41;21.10;55.00
1958;DHT22;979;51.076;13.748;2022-07-29T06:21:13;21.20;55.00
1958;DHT22;979;51.076;13.748;2022-07-29T06:23:46;21.60;55.30
1958;DHT22;979;51.076;13.748;2022-07-29T06:26:14;21.40;54.90
1958;DHT22;979;51.076;13.748;2022-07-29T06:28:42;21.60;54.80
1958;DHT22;979;51.076;13.748;2022-07-29T06:31:35;21.80;54.80
1958;DHT22;979;51.076;13.748;2022-07-29T06:34:04;21.90;54.60
1958;DHT22;979;51.076;13.748;2022-07-29T06:36:35;22.00;54.50
1958;DHT22;979;51.076;13.748;2022-07-29T06:39:09;22.20;54.40
1958;DHT22;979;51.076;13.748;2022-07-29T06:41:38;22.30;54.30
1958;DHT22;979;51.076;13.748;2022-07-29T06:44:09;22.50;54.30
1958;DHT22;979;51.076;13.748;2022-07-29T06:46:38;22.60;54.10
1958;DHT22;979;51.076;13.748;2022-07-29T06:49:09;22.70;54.00
1958;DHT22;979;51.076;13.748;2022-07-29T06:51:40;22.80;53.90
1958;DHT22;979;51.076;13.748;2022-07-29T06:54:15;22.90;53.80
1958;DHT22;979;51.076;13.748;2022-07-29T06:57:09;23.00;53.70
1958;DHT22;979;51.076;13.748;2022-07-29T06:59:40;23.20;53.50
1958;DHT22;979;51.076;13.748;2022-07-29T07:02:10;23.20;53.40
1958;DHT22;979;51.076;13.748;2022-07-29T07:04:54;23.30;53.40
1958;DHT22;979;51.076;13.748;2022-07-29T07:07:50;23.20;53.30
1958;DHT22;979;51.076;13.748;2022-07-29T08:10:08;25.80;51.00
1958;DHT22;979;51.076;13.748;2022-07-29T08:13:11;26.10;50.90
1958;DHT22;979;51.076;13.748;2022-07-29T08:16:07;26.20;50.70
1958;DHT22;979;51.076;13.748;2022-07-29T08:19:06;26.40;50.50
1958;DHT22;979;51.076;13.748;2022-07-29T08:22:02;26.50;50.20
1958;DHT22;979;51.076;13.748;2022-07-29T08:35:43;27.40;49.40
1958;DHT22;979;51.076;13.748;2022-07-29T08:38:42;27.50;49.50
1958;DHT22;979;51.076;13.748;2022-07-29T08:41:38;27.60;49.20
1958;DHT22;979;51.076;13.748;2022-07-29T08:44:34;27.60;49.10
1958;DHT22;979;51.076;13.748;2022-07-29T08:47:31;27.70;49.00
1958;DHT22;979;51.076;13.748;2022-07-29T08:50:28;27.90;48.90
1958;DHT22;979;51.076;13.748;2022-07-29T10:56:29;32.60;42.00
1958;DHT22;979;51.076;13.748;2022-07-29T10:59:23;32.70;42.00
1958;DHT22;979;51.076;13.748;2022-07-29T11:02:43;32.80;41.70
1958;DHT22;979;51.076;13.748;2022-07-29T11:05:56;32.80;41.30
1958;DHT22;979;51.076;13.748;2022-07-29T11:09:15;32.80;41.40
1958;DHT22;979;51.076;13.748;2022-07-29T11:15:56;32.90;41.20
1958;DHT22;979;51.076;13.748;2022-07-29T11:18:27;32.90;40.50
1958;DHT22;979;51.076;13.748;2022-07-29T11:20:56;33.00;40.90
1958;DHT22;979;51.076;13.748;2022-07-29T11:23:28;33.10;40.90
1958;DHT22;979;51.076;13.748;2022-07-29T11:26:16;33.20;40.80
1958;DHT22;979;51.076;13.748;2022-07-29T11:28:52;33.20;40.50
1958;DHT22;979;51.076;13.748;2022-07-29T11:31:35;33.20;40.60
1958;DHT22;979;51.076;13.748;2022-07-29T11:34:16;33.10;40.80
1958;DHT22;979;51.076;13.748;2022-07-29T11:37:17;33.30;40.70
1958;DHT22;979;51.076;13.748;2022-07-29T11:40:16;33.70;40.70
1958;DHT22;979;51.076;13.748;2022-07-29T11:42:50;34.30;40.40
1958;DHT22;979;51.076;13.748;2022-07-29T11:45:21;35.10;40.30
1958;DHT22;979;51.076;13.748;2022-07-29T11:48:17;35.80;39.70
1958;DHT22;979;51.076;13.748;2022-07-29T11:50:58;36.30;39.10
1958;DHT22;979;51.076;13.748;2022-07-29T11:53:29;36.60;38.90
1958;DHT22;979;51.076;13.748;2022-07-29T11:56:01;37.10;38.90
1958;DHT22;979;51.076;13.748;2022-07-29T11:58:32;37.80;38.60
1958;DHT22;979;51.076;13.748;2022-07-29T12:01:06;38.40;37.80
1958;DHT22;979;51.076;13.748;2022-07-29T12:03:36;38.50;37.40
1958;DHT22;979;51.076;13.748;2022-07-29T12:06:11;38.40;37.10
1958;DHT22;979;51.076;13.748;2022-07-29T12:08:44;38.80;37.00
1958;DHT22;979;51.076;13.748;2022-07-29T12:11:17;39.20;36.70
1958;DHT22;979;51.076;13.748;2022-07-29T12:13:50;39.80;36.50
1958;DHT22;979;51.076;13.748;2022-07-29T12:16:21;40.50;36.50
1958;DHT22;979;51.076;13.748;2022-07-29T12:18:57;41.30;36.30
1958;DHT22;979;51.076;13.748;2022-07-29T12:21:26;42.30;35.80
1958;DHT22;979;51.076;13.748;2022-07-29T12:23:55;43.50;35.30
1958;DHT22;979;51.076;13.748;2022-07-29T12:26:34;44.10;34.80
1958;DHT22;979;51.076;13.748;2022-07-29T12:29:03;44.40;34.30
1958;DHT22;979;51.076;13.748;2022-07-29T12:31:38;44.20;33.70
1958;DHT22;979;51.076;13.748;2022-07-29T12:34:13;43.40;33.50
1958;DHT22;979;51.076;13.748;2022-07-29T12:36:43;42.40;33.70
1958;DHT22;979;51.076;13.748;2022-07-29T12:39:11;41.40;34.10
1958;DHT22;979;51.076;13.748;2022-07-29T12:41:40;40.50;34.50
1958;DHT22;979;51.076;13.748;2022-07-29T12:44:08;39.80;35.00
1958;DHT22;979;51.076;13.748;2022-07-29T12:46:36;39.40;35.50
1958;DHT22;979;51.076;13.748;2022-07-29T12:49:05;39.30;35.60
1958;DHT22;979;51.076;13.748;2022-07-29T12:51:36;39.10;35.50
1958;DHT22;979;51.076;13.748;2022-07-29T12:54:07;38.70;35.60
1958;DHT22;979;51.076;13.748;2022-07-29T12:56:40;38.30;36.00
1958;DHT22;979;51.076;13.748;2022-07-29T12:59:14;37.80;36.30
1958;DHT22;979;51.076;13.748;2022-07-29T13:01:42;37.40;36.60
1958;DHT22;979;51.076;13.748;2022-07-29T13:04:10;37.00;36.70
1958;DHT22;979;51.076;13.748;2022-07-29T13:06:42;36.70;37.10
1958;DHT22;979;51.076;13.748;2022-07-29T13:09:16;36.60;37.30
1958;DHT22;979;51.076;13.748;2022-07-29T13:11:46;36.50;37.40
1958;DHT22;979;51.076;13.748;2022-07-29T13:14:30;36.50;37.50
1958;DHT22;979;51.076;13.748;2022-07-29T13:17:04;36.60;37.50
1958;DHT22;979;51.076;13.748;2022-07-29T13:19:35;36.80;37.60
1958;DHT22;979;51.076;13.748;2022-07-29T13:22:05;36.90;37.50
1958;DHT22;979;51.076;13.748;2022-07-29T13:24:33;36.90;37.40
1958;DHT22;979;51.076;13.748;2022-07-29T13:27:02;37.10;37.40
1958;DHT22;979;51.076;13.748;2022-07-29T13:29:31;37.00;37.10
1958;DHT22;979;51.076;13.748;2022-07-29T13:32:00;36.90;37.50
1958;DHT22;979;51.076;13.748;2022-07-29T13:34:28;36.70;37.40
1958;DHT22;979;51.076;13.748;2022-07-29T13:36:56;37.10;37.90
1958;DHT22;979;51.076;13.748;2022-07-29T13:39:28;37.80;37.80
1958;DHT22;979;51.076;13.748;2022-07-29T13:41:57;38.50;37.10
1958;DHT22;979;51.076;13.748;2022-07-29T13:44:26;38.70;36.50
1958;DHT22;979;51.076;13.748;2022-07-29T13:46:54;38.50;36.50
1958;DHT22;979;51.076;13.748;2022-07-29T13:49:25;38.50;36.80
1958;DHT22;979;51.076;13.748;2022-07-29T13:51:54;38.90;36.70
1958;DHT22;979;51.076;13.748;2022-07-29T13:54:22;39.10;36.60
1958;DHT22;979;51.076;13.748;2022-07-29T13:56:56;39.20;36.20
1958;DHT22;979;51.076;13.748;2022-07-29T13:59:24;38.90;36.00
1958;DHT22;979;51.076;13.748;2022-07-29T14:01:53;38.50;36.90
1958;DHT22;979;51.076;13.748;2022-07-29T14:04:21;38.20;36.40
1958;DHT22;979;51.076;13.748;2022-07-29T14:06:50;37.80;36.40
1958;DHT22;979;51.076;13.748;2022-07-29T14:09:20;37.60;36.70
1958;DHT22;979;51.076;13.748;2022-07-29T14:11:51;37.70;37.00
1958;DHT22;979;51.076;13.748;2022-07-29T14:14:21;37.60;36.80
1958;DHT22;979;51.076;13.748;2022-07-29T14:16:49;37.40;36.90
1958;DHT22;979;51.076;13.748;2022-07-29T14:19:18;37.70;37.30
1958;DHT22;979;51.076;13.748;2022-07-29T14:21:46;38.40;37.30
1958;DHT22;979;51.076;13.748;2022-07-29T14:24:16;39.20;37.00
1958;DHT22;979;51.076;13.748;2022-07-29T14:26:56;40.10;36.60
1958;DHT22;979;51.076;13.748;2022-07-29T14:29:26;40.80;36.00
1958;DHT22;979;51.076;13.748;2022-07-29T14:32:08;41.50;35.70
1958;DHT22;979;51.076;13.748;2022-07-29T14:34:37;42.00;35.80
1958;DHT22;979;51.076;13.748;2022-07-29T14:37:06;42.20;34.70
1958;DHT22;979;51.076;13.748;2022-07-29T14:39:44;42.30;34.40
1958;DHT22;979;51.076;13.748;2022-07-29T14:42:12;42.30;34.10
1958;DHT22;979;51.076;13.748;2022-07-29T14:44:44;42.30;34.30
1958;DHT22;979;51.076;13.748;2022-07-29T14:47:14;42.80;34.50
1958;DHT22;979;51.076;13.748;2022-07-29T14:49:45;43.10;34.10
1958;DHT22;979;51.076;13.748;2022-07-29T14:52:13;43.30;33.80
1958;DHT22;979;51.076;13.748;2022-07-29T14:54:41;43.40;33.60
1958;DHT22;979;51.076;13.748;2022-07-29T14:57:11;42.80;33.20
1958;DHT22;979;51.076;13.748;2022-07-29T14:59:39;41.90;33.50
1958;DHT22;979;51.076;13.748;2022-07-29T15:02:09;41.00;34.60
1958;DHT22;979;51.076;13.748;2022-07-29T15:04:39;40.30;34.30
1958;DHT22;979;51.076;13.748;2022-07-29T15:07:07;39.70;34.70
1958;DHT22;979;51.076;13.748;2022-07-29T15:09:36;39.00;35.00
1958;DHT22;979;51.076;13.748;2022-07-29T15:12:08;38.40;35.30
1958;DHT22;979;51.076;13.748;2022-07-29T15:14:37;37.80;35.70
1958;DHT22;979;51.076;13.748;2022-07-29T15:17:05;37.20;36.00
1958;DHT22;979;51.076;13.748;2022-07-29T15:19:35;36.70;36.40
1958;DHT22;979;51.076;13.748;2022-07-29T15:22:03;36.10;36.70
1958;DHT22;979;51.076;13.748;2022-07-29T15:24:32;35.70;37.00
1958;DHT22;979;51.076;13.748;2022-07-29T15:27:00;35.40;37.40
1958;DHT22;979;51.076;13.748;2022-07-29T15:29:29;35.10;37.60
1958;DHT22;979;51.076;13.748;2022-07-29T15:31:57;34.80;37.90
1958;DHT22;979;51.076;13.748;2022-07-29T15:34:25;34.70;38.40
1958;DHT22;979;51.076;13.748;2022-07-29T15:36:55;34.50;38.80
1958;DHT22;979;51.076;13.748;2022-07-29T15:39:23;34.70;39.80
1958;DHT22;979;51.076;13.748;2022-07-29T15:41:51;34.80;39.00
1958;DHT22;979;51.076;13.748;2022-07-29T15:44:20;35.00;39.10
1958;DHT22;979;51.076;13.748;2022-07-29T15:46:48;35.00;38.90
1958;DHT22;979;51.076;13.748;2022-07-29T15:49:34;34.70;38.90
1958;DHT22;979;51.076;13.748;2022-07-29T15:52:20;34.70;39.40
1958;DHT22;979;51.076;13.748;2022-07-29T15:54:52;35.00;39.70
1958;DHT22;979;51.076;13.748;2022-07-29T15:57:21;35.50;39.50
1958;DHT22;979;51.076;13.748;2022-07-29T15:59:49;36.10;39.20
1958;DHT22;979;51.076;13.748;2022-07-29T16:02:18;36.50;38.90
1958;DHT22;979;51.076;13.748;2022-07-29T16:04:48;36.70;38.30
1958;DHT22;979;51.076;13.748;2022-07-29T16:07:18;36.70;38.10
1958;DHT22;979;51.076;13.748;2022-07-29T16:09:47;36.40;38.10
1958;DHT22;979;51.076;13.748;2022-07-29T16:12:19;36.40;38.40
1958;DHT22;979;51.076;13.748;2022-07-29T16:14:47;36.40;38.30
1958;DHT22;979;51.076;13.748;2022-07-29T16:17:17;36.20;38.10
1958;DHT22;979;51.076;13.748;2022-07-29T16:19:45;35.90;38.10
1958;DHT22;979;51.076;13.748;2022-07-29T16:22:13;35.60;38.40
1958;DHT22;979;51.076;13.748;2022-07-29T16:24:43;35.20;38.70
1958;DHT22;979;51.076;13.748;2022-07-29T16:27:12;34.60;38.90
1958;DHT22;979;51.076;13.748;2022-07-29T16:29:40;34.40;39.10
1958;DHT22;979;51.076;13.748;2022-07-29T16:32:08;34.20;39.40
1958;DHT22;979;51.076;13.748;2022-07-29T16:34:37;33.90;39.70
1958;DHT22;979;51.076;13.748;2022-07-29T16:37:11;33.70;40.00
1958;DHT22;979;51.076;13.748;2022-07-29T16:39:43;33.50;40.20
1958;DHT22;979;51.076;13.748;2022-07-29T16:42:13;33.30;40.40
1958;DHT22;979;51.076;13.748;2022-07-29T16:45:03;33.10;40.40
1958;DHT22;979;51.076;13.748;2022-07-29T16:47:35;32.90;40.50
1958;DHT22;979;51.076;13.748;2022-07-29T16:50:09;32.70;40.80
1958;DHT22;979;51.076;13.748;2022-07-29T16:52:38;32.60;40.80
1958;DHT22;979;51.076;13.748;2022-07-29T16:55:08;32.50;40.90
1958;DHT22;979;51.076;13.748;2022-07-29T16:57:36;32.40;41.10
1958;DHT22;979;51.076;13.748;2022-07-29T17:00:06;32.20;41.10
1958;DHT22;979;51.076;13.748;2022-07-29T17:02:35;32.20;41.10
1958;DHT22;979;51.076;13.748;2022-07-29T17:05:05;32.00;41.30
1958;DHT22;979;51.076;13.748;2022-07-29T17:07:34;32.00;41.30
1958;DHT22;979;51.076;13.748;2022-07-29T17:10:03;31.90;41.50
1958;DHT22;979;51.076;13.748;2022-07-29T17:12:35;31.80;41.40
1958;DHT22;979;51.076;13.748;2022-07-29T17:15:05;31.70;41.40
1958;DHT22;979;51.076;13.748;2022-07-29T17:17:37;31.60;41.50
1958;DHT22;979;51.076;13.748;2022-07-29T17:20:22;31.70;41.80
1958;DHT22;979;51.076;13.748;2022-07-29T17:22:52;31.60;41.70
1958;DHT22;979;51.076;13.748;2022-07-29T17:25:22;31.60;41.70
1958;DHT22;979;51.076;13.748;2022-07-29T17:27:53;31.20;41.70
1958;DHT22;979;51.076;13.748;2022-07-29T17:30:29;31.60;42.10
1958;DHT22;979;51.076;13.748;2022-07-29T17:32:58;31.50;42.20
1958;DHT22;979;51.076;13.748;2022-07-29T17:35:26;31.40;42.30
1958;DHT22;979;51.076;13.748;2022-07-29T17:38:12;31.40;42.40
1958;DHT22;979;51.076;13.748;2022-07-29T17:40:41;31.30;42.90
1958;DHT22;979;51.076;13.748;2022-07-29T17:43:11;31.20;42.30
1958;DHT22;979;51.076;13.748;2022-07-29T17:45:39;31.10;42.50
1958;DHT22;979;51.076;13.748;2022-07-29T17:48:17;31.10;42.60
1958;DHT22;979;51.076;13.748;2022-07-29T17:50:46;31.00;42.60
1958;DHT22;979;51.076;13.748;2022-07-29T17:53:15;31.00;42.80
1958;DHT22;979;51.076;13.748;2022-07-29T17:55:43;30.90;42.90
1958;DHT22;979;51.076;13.748;2022-07-29T17:58:15;30.90;43.10
1958;DHT22;979;51.076;13.748;2022-07-29T18:00:43;30.80;43.20
1958;DHT22;979;51.076;13.748;2022-07-29T18:03:11;30.70;44.10
1958;DHT22;979;51.076;13.748;2022-07-29T18:05:40;30.70;43.40
1958;DHT22;979;51.076;13.748;2022-07-29T18:08:09;30.60;43.30
1958;DHT22;979;51.076;13.748;2022-07-29T18:10:37;30.50;43.50
1958;DHT22;979;51.076;13.748;2022-07-29T18:13:07;30.30;43.40
1958;DHT22;979;51.076;13.748;2022-07-29T18:15:37;30.20;43.60
1958;DHT22;979;51.076;13.748;2022-07-29T18:18:06;30.10;43.70
1958;DHT22;979;51.076;13.748;2022-07-29T18:20:37;30.00;43.70
1958;DHT22;979;51.076;13.748;2022-07-29T18:23:05;30.00;44.00
1958;DHT22;979;51.076;13.748;2022-07-29T18:25:37;29.90;44.10
1958;DHT22;979;51.076;13.748;2022-07-29T18:28:06;29.80;44.40
1958;DHT22;979;51.076;13.748;2022-07-29T18:30:37;29.70;44.30
1958;DHT22;979;51.076;13.748;2022-07-29T18:33:12;29.60;44.50
1958;DHT22;979;51.076;13.748;2022-07-29T18:35:50;29.50;44.90
1958;DHT22;979;51.076;13.748;2022-07-29T18:38:37;29.40;44.70
1958;DHT22;979;51.076;13.748;2022-07-29T18:41:05;29.30;44.70
1958;DHT22;979;51.076;13.748;2022-07-29T18:43:34;29.20;44.90
1958;DHT22;979;51.076;13.748;2022-07-29T18:46:47;29.10;45.00
1958;DHT22;979;51.076;13.748;2022-07-29T18:49:44;28.90;45.30
1958;DHT22;979;51.076;13.748;2022-07-29T18:52:49;28.90;45.80
1958;DHT22;979;51.076;13.748;2022-07-29T18:55:53;28.80;46.00
1958;DHT22;979;51.076;13.748;2022-07-29T18:58:26;28.60;45.60
1958;DHT22;979;51.076;13.748;2022-07-29T19:00:58;28.50;46.10
1958;DHT22;979;51.076;13.748;2022-07-29T19:04:15;28.40;46.10
1958;DHT22;979;51.076;13.748;2022-07-29T19:07:26;28.30;46.30
1958;DHT22;979;51.076;13.748;2022-07-29T19:31:14;28.00;47.10
1958;DHT22;979;51.076;13.748;2022-07-29T19:33:42;27.80;47.10
1958;DHT22;979;51.076;13.748;2022-07-29T19:40:29;27.90;48.30
1958;DHT22;979;51.076;13.748;2022-07-29T19:42:57;27.70;48.60
1958;DHT22;979;51.076;13.748;2022-07-29T19:45:26;27.60;49.40
1958;DHT22;979;51.076;13.748;2022-07-29T19:47:58;27.50;49.70
1958;DHT22;979;51.076;13.748;2022-07-29T19:50:29;27.50;50.00
1958;DHT22;979;51.076;13.748;2022-07-29T19:52:58;27.50;50.90
1958;DHT22;979;51.076;13.748;2022-07-29T19:55:27;27.50;50.90
1958;DHT22;979;51.076;13.748;2022-07-29T20:49:30;26.50;52.10
1958;DHT22;979;51.076;13.748;2022-07-29T21:03:04;25.90;51.90
1958;DHT22;979;51.076;13.748;2022-07-29T21:04:27;26.10;52.00
1958;DHT22;979;51.076;13.748;2022-07-29T21:06:59;26.00;52.10
1958;DHT22;979;51.076;13.748;2022-07-29T21:09:29;25.90;52.10
1958;DHT22;979;51.076;13.748;2022-07-29T21:12:00;25.90;52.20
1958;DHT22;979;51.076;13.748;2022-07-29T21:15:24;25.90;52.40
1958;DHT22;979;51.076;13.748;2022-07-29T21:18:18;25.90;52.30
1958;DHT22;979;51.076;13.748;2022-07-29T21:21:03;25.80;52.50
1958;DHT22;979;51.076;13.748;2022-07-29T21:23:46;25.80;52.90
1958;DHT22;979;51.076;13.748;2022-07-29T21:26:15;25.80;53.30
1958;DHT22;979;51.076;13.748;2022-07-29T21:28:44;25.70;53.30
1958;DHT22;979;51.076;13.748;2022-07-29T21:31:16;25.50;53.50
1958;DHT22;979;51.076;13.748;2022-07-29T21:33:45;25.60;53.40